createdAt,value
2019-05-20T00:00:43.294Z,547.83
2019-05-20T00:02:48.422Z,107.97
2019-05-20T00:04:52.567Z,421.17
2019-05-20T00:06:57.016Z,67.33
2019-05-20T00:09:02.222Z,47.70
2019-05-20T00:11:07.165Z,44.13
2019-05-20T00:13:12.694Z,40.30
2019-05-20T00:15:17.705Z,41.40
2019-05-20T00:17:21.747Z,40.60
2019-05-20T00:19:25.660Z,39.27
2019-05-20T00:21:30.333Z,37.58
2019-05-20T00:23:35.888Z,37.00
2019-05-20T00:25:39.796Z,36.57
2019-05-20T00:27:43.488Z,36.77
2019-05-20T00:29:48.165Z,36.83
2019-05-20T00:31:53.111Z,36.00
2019-05-20T00:33:57.157Z,34.77
2019-05-20T00:36:01.324Z,36.27
2019-05-20T00:38:05.727Z,49.27
2019-05-20T00:40:10.331Z,100.90
2019-05-20T00:42:14.639Z,309.33
2019-05-20T00:44:18.735Z,424.63
2019-05-20T00:46:22.728Z,311.13
2019-05-20T00:48:27.822Z,572.00
2019-05-20T00:50:31.763Z,404.67
2019-05-20T00:52:36.306Z,212.12
2019-05-20T00:54:41.720Z,133.93
2019-05-20T00:56:45.464Z,120.10
2019-05-20T00:58:49.429Z,106.43
2019-05-20T01:00:53.168Z,97.90
2019-05-20T01:03:14.974Z,77.27
2019-05-20T01:05:19.889Z,60.93
2019-05-20T01:07:24.449Z,58.00
2019-05-20T01:09:28.972Z,56.43
2019-05-20T01:11:32.814Z,53.70
2019-05-20T01:13:37.177Z,52.97
2019-05-20T01:15:40.963Z,50.90
2019-05-20T01:17:44.440Z,50.63
2019-05-20T01:19:49.787Z,48.73
2019-05-20T01:21:53.797Z,46.87
2019-05-20T01:23:57.998Z,44.53
2019-05-20T01:26:04.093Z,42.37
2019-05-20T01:28:08.225Z,41.00
2019-05-20T01:30:12.468Z,38.63
2019-05-20T01:32:17.123Z,42.03
2019-05-20T01:34:21.064Z,43.67
2019-05-20T01:36:25.119Z,44.87
2019-05-20T01:38:29.253Z,45.60
2019-05-20T01:40:33.818Z,40.10
2019-05-20T01:42:37.258Z,40.30
2019-05-20T01:44:41.696Z,38.43
2019-05-20T01:46:45.775Z,38.20
2019-05-20T01:48:49.511Z,36.47
2019-05-20T01:50:54.409Z,35.10
2019-05-20T01:52:58.512Z,38.93
2019-05-20T01:55:03.214Z,35.63
2019-05-20T01:57:08.299Z,33.93
2019-05-20T01:59:12.186Z,31.63
2019-05-20T02:01:16.800Z,30.33
2019-05-20T02:03:30.958Z,29.40
2019-05-20T02:05:26.179Z,29.20
2019-05-20T02:07:31.390Z,27.30
2019-05-20T02:09:35.432Z,28.90
2019-05-20T02:11:40.011Z,25.93
2019-05-20T02:13:44.266Z,24.60
2019-05-20T02:15:48.718Z,26.23
2019-05-20T02:17:52.611Z,25.83
2019-05-20T02:19:56.880Z,23.37
2019-05-20T02:22:01.279Z,24.50
2019-05-20T02:24:05.418Z,23.50
2019-05-20T02:26:09.417Z,21.37
2019-05-20T02:28:14.015Z,22.27
2019-05-20T02:30:18.141Z,21.47
2019-05-20T02:32:21.717Z,22.40
2019-05-20T02:34:25.837Z,22.53
2019-05-20T02:36:29.862Z,20.77
2019-05-20T02:38:33.857Z,20.30
2019-05-20T02:40:38.106Z,18.53
2019-05-20T02:42:42.293Z,22.20
2019-05-20T02:44:46.285Z,21.27
2019-05-20T02:46:50.480Z,20.07
2019-05-20T02:48:54.430Z,19.13
2019-05-20T02:50:58.501Z,20.07
2019-05-20T02:53:02.666Z,18.00
2019-05-20T02:55:06.519Z,18.90
2019-05-20T02:57:10.213Z,18.23
2019-05-20T02:59:14.396Z,17.40
2019-05-20T03:01:21.868Z,16.40
2019-05-20T03:03:23.679Z,16.53
2019-05-20T03:05:27.696Z,17.60
2019-05-20T03:07:32.960Z,17.43
2019-05-20T03:09:37.467Z,16.30
2019-05-20T03:11:41.687Z,16.17
2019-05-20T03:13:45.822Z,16.77
2019-05-20T03:15:49.705Z,15.60
2019-05-20T03:17:53.825Z,16.30
2019-05-20T03:19:57.731Z,16.37
2019-05-20T03:22:01.578Z,16.30
2019-05-20T03:24:05.514Z,16.17
2019-05-20T03:26:09.847Z,14.87
2019-05-20T03:28:13.745Z,15.20
2019-05-20T03:30:18.031Z,15.47
2019-05-20T03:32:22.156Z,15.63
2019-05-20T03:34:45.246Z,13.70
2019-05-20T03:36:31.697Z,14.80
2019-05-20T03:38:35.965Z,13.77
2019-05-20T03:40:40.660Z,14.70
2019-05-20T03:42:45.257Z,13.30
2019-05-20T03:44:49.986Z,13.43
2019-05-20T03:46:54.122Z,13.17
2019-05-20T03:48:58.082Z,11.80
2019-05-20T03:51:02.388Z,13.17
2019-05-20T03:53:06.561Z,11.23
2019-05-20T03:55:10.452Z,13.07
2019-05-20T03:57:14.697Z,13.10
2019-05-20T03:59:18.926Z,12.63
2019-05-20T04:01:22.746Z,12.77
2019-05-20T04:03:26.691Z,12.90
2019-05-20T04:05:31.199Z,12.87
2019-05-20T04:07:35.531Z,12.20
2019-05-20T04:09:39.499Z,11.77
2019-05-20T04:11:43.665Z,12.70
2019-05-20T04:13:47.576Z,12.17
2019-05-20T04:15:51.737Z,12.20
2019-05-20T04:17:57.075Z,12.07
2019-05-20T04:20:01.372Z,11.07
2019-05-20T04:22:05.969Z,12.20
2019-05-20T04:24:10.283Z,10.60
2019-05-20T04:26:14.591Z,11.17
2019-05-20T04:28:18.736Z,10.23
2019-05-20T04:30:22.572Z,10.00
2019-05-20T04:32:26.662Z,10.90
2019-05-20T04:34:31.052Z,10.43
2019-05-20T04:36:34.904Z,10.50
2019-05-20T04:38:39.299Z,11.57
2019-05-20T04:40:43.104Z,10.70
2019-05-20T04:42:47.028Z,10.60
2019-05-20T04:44:52.301Z,9.07
2019-05-20T04:46:58.060Z,10.27
2019-05-20T04:49:01.837Z,10.73
2019-05-20T04:51:06.033Z,11.07
2019-05-20T04:53:09.988Z,10.47
2019-05-20T04:55:14.440Z,10.20
2019-05-20T04:57:18.561Z,10.33
2019-05-20T04:59:22.763Z,10.60
2019-05-20T05:01:26.576Z,10.27
2019-05-20T05:03:30.757Z,9.90
2019-05-20T05:05:37.572Z,10.20
2019-05-20T05:07:39.394Z,10.70
2019-05-20T05:09:43.529Z,10.50
2019-05-20T05:11:47.426Z,10.53
2019-05-20T05:13:50.944Z,9.90
2019-05-20T05:15:55.966Z,10.53
2019-05-20T05:18:00.318Z,9.70
2019-05-20T05:20:04.205Z,11.13
2019-05-20T05:22:08.694Z,9.23
2019-05-20T05:24:12.804Z,8.40
2019-05-20T05:26:16.452Z,9.40
2019-05-20T05:28:20.552Z,9.47
2019-05-20T05:30:24.320Z,10.47
2019-05-20T05:32:28.348Z,9.07
2019-05-20T05:34:32.381Z,9.57
2019-05-20T05:36:36.460Z,9.50
2019-05-20T05:38:40.555Z,9.40
2019-05-20T05:40:44.774Z,9.80
2019-05-20T05:42:49.210Z,10.13
2019-05-20T05:44:53.181Z,9.17
2019-05-20T05:46:57.397Z,9.90
2019-05-20T05:49:01.506Z,10.23
2019-05-20T05:51:05.402Z,10.10
2019-05-20T05:53:09.340Z,9.30
2019-05-20T05:55:13.662Z,9.63
2019-05-20T05:57:17.233Z,11.17
2019-05-20T05:59:21.388Z,10.43
2019-05-20T06:01:25.060Z,8.90
2019-05-20T06:03:28.978Z,9.20
2019-05-20T06:05:32.841Z,9.23
2019-05-20T06:07:38.928Z,8.70
2019-05-20T06:09:42.905Z,8.83
2019-05-20T06:11:47.142Z,9.30
2019-05-20T06:13:50.919Z,8.73
2019-05-20T06:15:55.466Z,9.70
2019-05-20T06:17:59.500Z,8.70
2019-05-20T06:20:03.373Z,8.93
2019-05-20T06:22:07.167Z,9.83
2019-05-20T06:24:11.371Z,8.87
2019-05-20T06:26:15.107Z,8.90
2019-05-20T06:28:18.965Z,8.57
2019-05-20T06:30:23.308Z,9.50
2019-05-20T06:32:28.313Z,8.47
2019-05-20T06:34:32.403Z,9.10
2019-05-20T06:36:36.373Z,9.50
2019-05-20T06:38:40.213Z,9.10
2019-05-20T06:40:44.832Z,9.50
2019-05-20T06:42:48.988Z,9.00
2019-05-20T06:44:57.033Z,9.17
2019-05-20T06:46:58.550Z,9.77
2019-05-20T06:49:03.377Z,9.37
2019-05-20T06:51:07.249Z,8.50
2019-05-20T06:53:11.610Z,9.07
2019-05-20T06:55:15.461Z,7.77
2019-05-20T06:57:19.685Z,9.50
2019-05-20T06:59:23.758Z,9.17
2019-05-20T07:01:28.490Z,8.67
2019-05-20T07:03:32.573Z,7.53
2019-05-20T07:05:36.849Z,8.43
2019-05-20T07:07:41.300Z,8.97
2019-05-20T07:09:45.194Z,9.30
2019-05-20T07:11:52.775Z,8.50
2019-05-20T07:13:54.682Z,8.93
2019-05-20T07:15:58.737Z,9.03
2019-05-20T07:18:02.450Z,8.40
2019-05-20T07:20:06.771Z,9.00
2019-05-20T07:22:11.063Z,8.63
2019-05-20T07:24:14.985Z,8.60
2019-05-20T07:26:18.885Z,9.07
2019-05-20T07:28:23.243Z,9.60
2019-05-20T07:30:27.005Z,7.93
2019-05-20T07:32:31.243Z,8.20
2019-05-20T07:34:35.166Z,8.30
2019-05-20T07:36:38.668Z,9.37
2019-05-20T07:38:42.857Z,8.43
2019-05-20T07:40:46.760Z,8.30
2019-05-20T07:42:50.518Z,7.93
2019-05-20T07:44:54.494Z,8.43
2019-05-20T07:46:58.770Z,9.23
2019-05-20T07:49:02.822Z,9.80
2019-05-20T07:51:07.062Z,8.30
2019-05-20T07:53:12.110Z,8.37
2019-05-20T07:55:16.012Z,8.23
2019-05-20T07:57:19.995Z,8.00
2019-05-20T07:59:23.731Z,8.23
2019-05-20T08:01:27.368Z,8.43
2019-05-20T08:03:32.186Z,8.40
2019-05-20T08:05:36.073Z,8.50
2019-05-20T08:07:51.755Z,8.00
2019-05-20T08:09:46.753Z,7.23
2019-05-20T08:11:50.678Z,9.30
2019-05-20T08:13:54.447Z,7.90
2019-05-20T08:15:58.447Z,9.33
2019-05-20T08:18:02.342Z,8.27
2019-05-20T08:20:06.258Z,7.60
2019-05-20T08:22:10.196Z,9.10
2019-05-20T08:24:14.787Z,8.57
2019-05-20T08:26:18.747Z,9.10
2019-05-20T08:28:22.569Z,7.20
2019-05-20T08:30:26.682Z,8.23
2019-05-20T08:32:30.847Z,9.03
2019-05-20T08:34:34.959Z,9.33
2019-05-20T08:36:38.628Z,8.80
2019-05-20T08:38:42.660Z,8.50
2019-05-20T08:40:48.759Z,8.10
2019-05-20T08:42:51.775Z,8.93
2019-05-20T08:44:55.488Z,8.33
2019-05-20T08:46:59.392Z,7.70
2019-05-20T08:49:03.852Z,7.83
2019-05-20T08:51:07.419Z,7.67
2019-05-20T08:53:13.230Z,7.83
2019-05-20T08:55:17.441Z,8.53
2019-05-20T08:57:21.369Z,7.93
2019-05-20T08:59:25.144Z,8.80
2019-05-20T09:01:28.957Z,8.80
2019-05-20T09:03:32.546Z,8.07
2019-05-20T09:05:36.937Z,8.73
2019-05-20T09:07:40.576Z,8.27
2019-05-20T09:09:44.574Z,8.63
2019-05-20T09:11:48.813Z,8.60
2019-05-20T09:13:52.392Z,8.23
2019-05-20T09:15:56.178Z,8.60
2019-05-20T09:18:00.502Z,7.87
2019-05-20T09:20:04.580Z,7.97
2019-05-20T09:22:08.362Z,8.17
2019-05-20T09:24:12.329Z,7.83
2019-05-20T09:26:16.520Z,8.03
2019-05-20T09:28:20.365Z,8.47
2019-05-20T09:30:24.456Z,8.40
2019-05-20T09:32:28.669Z,8.60
2019-05-20T09:34:32.359Z,8.50
2019-05-20T09:36:36.628Z,8.60
2019-05-20T09:38:40.695Z,9.00
2019-05-20T09:40:44.442Z,8.93
2019-05-20T09:42:48.287Z,8.00
2019-05-20T09:44:51.988Z,8.50
2019-05-20T09:46:56.027Z,8.47
2019-05-20T09:49:00.331Z,8.20
2019-05-20T09:51:04.352Z,7.70
2019-05-20T09:53:08.245Z,9.07
2019-05-20T09:55:12.239Z,9.43
2019-05-20T09:57:16.235Z,9.00
2019-05-20T09:59:20.146Z,8.57
2019-05-20T10:01:24.182Z,8.27
2019-05-20T10:03:27.955Z,7.97
2019-05-20T10:05:31.572Z,8.40
2019-05-20T10:07:35.428Z,10.33
2019-05-20T10:09:40.087Z,9.00
2019-05-20T10:11:43.917Z,8.03
2019-05-20T10:13:47.678Z,7.97
2019-05-20T10:15:51.553Z,8.00
2019-05-20T10:17:55.504Z,9.20
2019-05-20T10:19:59.505Z,9.77
2019-05-20T10:22:03.641Z,8.60
2019-05-20T10:24:07.513Z,8.00
2019-05-20T10:26:11.964Z,8.80
2019-05-20T10:28:16.051Z,8.20
2019-05-20T10:30:20.151Z,7.40
2019-05-20T10:32:24.901Z,8.03
2019-05-20T10:34:28.687Z,8.43
2019-05-20T10:36:32.699Z,8.83
2019-05-20T10:38:54.534Z,7.77
2019-05-20T10:40:41.625Z,8.37
2019-05-20T10:42:45.264Z,7.87
2019-05-20T10:44:49.169Z,8.83
2019-05-20T10:46:54.061Z,7.90
2019-05-20T10:48:58.077Z,9.50
2019-05-20T10:51:02.112Z,8.53
2019-05-20T10:53:05.886Z,9.07
2019-05-20T10:55:09.372Z,8.90
2019-05-20T10:57:14.616Z,9.67
2019-05-20T10:59:19.014Z,8.77
2019-05-20T11:01:22.961Z,8.70
2019-05-20T11:03:27.032Z,8.30
2019-05-20T11:05:30.918Z,8.70
2019-05-20T11:07:34.604Z,8.83
2019-05-20T11:09:39.527Z,8.40
2019-05-20T11:11:43.341Z,8.90
2019-05-20T11:13:47.445Z,8.17
2019-05-20T11:15:51.530Z,9.50
2019-05-20T11:17:55.300Z,7.93
2019-05-20T11:19:59.631Z,8.27
2019-05-20T11:22:03.635Z,8.20
2019-05-20T11:24:07.329Z,7.27
2019-05-20T11:26:11.160Z,8.17
2019-05-20T11:28:15.359Z,8.10
2019-05-20T11:30:19.250Z,7.70
2019-05-20T11:32:23.368Z,9.77
2019-05-20T11:34:26.894Z,10.17
2019-05-20T11:36:31.007Z,9.43
2019-05-20T11:38:34.956Z,10.17
2019-05-20T11:40:39.147Z,9.30
2019-05-20T11:42:42.568Z,9.00
2019-05-20T11:44:47.223Z,9.83
2019-05-20T11:46:51.460Z,9.60
2019-05-20T11:48:55.277Z,9.30
2019-05-20T11:50:59.292Z,10.90
2019-05-20T11:53:03.550Z,9.93
2019-05-20T11:55:07.202Z,10.60
2019-05-20T11:57:10.904Z,9.83
2019-05-20T11:59:15.056Z,9.20
2019-05-20T12:01:18.950Z,9.43
2019-05-20T12:03:22.966Z,8.93
2019-05-20T12:05:26.965Z,9.93
2019-05-20T12:07:30.671Z,10.20
2019-05-20T12:09:48.341Z,9.10
2019-05-20T12:11:39.701Z,9.13
2019-05-20T12:13:43.721Z,8.50
2019-05-20T12:15:47.958Z,8.73
2019-05-20T12:17:51.950Z,8.30
2019-05-20T12:19:55.941Z,8.90
2019-05-20T12:21:59.841Z,10.20
2019-05-20T12:24:03.459Z,9.50
2019-05-20T12:26:07.361Z,10.00
2019-05-20T12:28:11.902Z,8.60
2019-05-20T12:30:16.232Z,9.77
2019-05-20T12:32:20.386Z,8.43
2019-05-20T12:34:24.719Z,8.60
2019-05-20T12:36:29.022Z,9.40
2019-05-20T12:38:32.822Z,9.87
2019-05-20T12:40:36.412Z,9.50
2019-05-20T12:42:41.555Z,8.63
2019-05-20T12:44:45.159Z,9.00
2019-05-20T12:46:49.308Z,9.17
2019-05-20T12:48:53.394Z,9.50
2019-05-20T12:50:57.067Z,10.40
2019-05-20T12:53:00.905Z,9.77
2019-05-20T12:55:08.473Z,10.23
2019-05-20T12:57:11.583Z,10.77
2019-05-20T12:59:15.971Z,9.83
2019-05-20T13:01:20.233Z,10.27
2019-05-20T13:03:24.643Z,9.33
2019-05-20T13:05:29.273Z,10.53
2019-05-20T13:07:33.264Z,9.70
2019-05-20T13:09:37.385Z,10.53
2019-05-20T13:11:41.244Z,9.40
2019-05-20T13:13:45.229Z,10.80
2019-05-20T13:15:48.872Z,9.63
2019-05-20T13:17:52.980Z,10.37
2019-05-20T13:19:57.017Z,9.97
2019-05-20T13:22:01.085Z,10.90
2019-05-20T13:24:05.938Z,11.40
2019-05-20T13:26:09.866Z,9.93
2019-05-20T13:28:14.460Z,11.43
2019-05-20T13:30:18.259Z,12.43
2019-05-20T13:32:22.382Z,10.37
2019-05-20T13:34:26.923Z,11.47
2019-05-20T13:36:30.562Z,11.00
2019-05-20T13:38:34.658Z,12.47
2019-05-20T13:40:46.438Z,12.27
2019-05-20T13:42:43.853Z,11.67
2019-05-20T13:44:47.723Z,11.47
2019-05-20T13:46:51.553Z,11.00
2019-05-20T13:48:55.526Z,11.30
2019-05-20T13:50:59.597Z,10.60
2019-05-20T13:53:03.154Z,11.00
2019-05-20T13:55:07.471Z,11.47
2019-05-20T13:57:13.256Z,10.47
2019-05-20T13:59:16.716Z,169.80
2019-05-20T14:01:20.513Z,111.93
2019-05-20T14:03:25.630Z,139.67
2019-05-20T14:05:30.008Z,53.80
2019-05-20T14:07:33.754Z,46.63
2019-05-20T14:09:37.567Z,41.47
2019-05-20T14:11:41.273Z,36.97
2019-05-20T14:13:45.020Z,37.10
2019-05-20T14:15:49.285Z,35.47
2019-05-20T14:17:53.120Z,33.30
2019-05-20T14:19:57.172Z,35.73
2019-05-20T14:22:01.525Z,32.80
2019-05-20T14:24:05.462Z,28.83
2019-05-20T14:26:10.759Z,27.33
2019-05-20T14:28:14.767Z,26.70
2019-05-20T14:30:18.875Z,24.57
2019-05-20T14:32:22.702Z,26.17
2019-05-20T14:34:26.474Z,26.50
2019-05-20T14:36:39.278Z,23.60
2019-05-20T14:38:35.940Z,23.60
2019-05-20T14:40:39.729Z,23.03
2019-05-20T14:42:44.958Z,21.60
2019-05-20T14:44:49.850Z,21.50
2019-05-20T14:46:53.903Z,21.93
2019-05-20T14:49:01.978Z,22.60
2019-05-20T14:51:02.962Z,18.20
2019-05-20T14:53:07.079Z,19.03
2019-05-20T14:55:11.027Z,18.47
2019-05-20T14:57:14.855Z,18.60
2019-05-20T14:59:18.573Z,18.83
2019-05-20T15:01:22.665Z,18.57
2019-05-20T15:03:27.254Z,17.30
2019-05-20T15:05:31.814Z,24.83
2019-05-20T15:07:36.247Z,34.40
2019-05-20T15:09:49.126Z,30.97
2019-05-20T15:11:53.077Z,39.47
2019-05-20T15:13:59.892Z,34.40
2019-05-20T15:16:02.702Z,28.80
2019-05-20T15:18:14.184Z,26.47
2019-05-20T15:20:20.395Z,28.67
2019-05-20T15:22:25.466Z,27.10
2019-05-20T15:24:30.236Z,24.67
2019-05-20T15:26:34.534Z,22.20
2019-05-20T15:28:38.720Z,22.40
2019-05-20T15:30:42.773Z,20.80
2019-05-20T15:32:46.245Z,20.60
2019-05-20T15:34:50.299Z,19.37
2019-05-20T15:36:54.731Z,19.00
2019-05-20T15:38:59.551Z,18.57
2019-05-20T15:41:03.408Z,17.63
2019-05-20T15:43:07.503Z,18.33
2019-05-20T15:45:14.387Z,19.60
2019-05-20T15:47:19.284Z,18.83
2019-05-20T15:49:24.098Z,18.57
2019-05-20T15:51:29.575Z,19.20
2019-05-20T15:53:33.633Z,18.23
2019-05-20T15:55:38.303Z,18.70
2019-05-20T15:57:43.482Z,15.00
2019-05-20T15:59:48.632Z,15.73
2019-05-20T16:01:52.926Z,13.90
2019-05-20T16:03:56.780Z,14.33
2019-05-20T16:06:01.008Z,12.93
2019-05-20T16:08:05.729Z,14.17
2019-05-20T16:10:11.541Z,12.73
2019-05-20T16:12:15.273Z,13.20
2019-05-20T16:14:19.754Z,13.20
2019-05-20T16:16:23.711Z,13.17
2019-05-20T16:18:27.720Z,13.57
2019-05-20T16:20:32.374Z,12.00
2019-05-20T16:22:36.827Z,13.60
2019-05-20T16:24:45.221Z,13.80
2019-05-20T16:26:48.140Z,11.47
2019-05-20T16:28:52.258Z,11.63
2019-05-20T16:30:56.398Z,10.60
2019-05-20T16:33:00.307Z,11.27
2019-05-20T16:35:04.066Z,10.50
2019-05-20T16:37:08.295Z,10.47
2019-05-20T16:39:12.489Z,12.00
2019-05-20T16:41:16.726Z,10.77
2019-05-20T16:43:20.717Z,11.57
2019-05-20T16:45:25.678Z,11.03
2019-05-20T16:47:29.653Z,9.43
2019-05-20T16:49:34.272Z,9.57
2019-05-20T16:51:38.921Z,11.03
2019-05-20T16:53:43.522Z,9.47
2019-05-20T16:55:48.070Z,11.20
2019-05-20T16:57:52.499Z,10.40
2019-05-20T16:59:57.017Z,10.07
2019-05-20T17:02:01.232Z,9.70
2019-05-20T17:04:05.895Z,11.33
2019-05-20T17:06:10.348Z,9.20
2019-05-20T17:08:15.056Z,9.90
2019-05-20T17:10:20.540Z,8.80
2019-05-20T17:12:24.911Z,8.53
2019-05-20T17:14:28.733Z,9.13
2019-05-20T17:16:32.634Z,9.07
2019-05-20T17:18:36.417Z,8.87
2019-05-20T17:20:39.815Z,7.90
2019-05-20T17:22:44.540Z,7.23
2019-05-20T17:24:48.239Z,8.10
2019-05-20T17:26:52.228Z,9.63
2019-05-20T17:28:56.380Z,8.30
2019-05-20T17:31:00.520Z,10.43
2019-05-20T17:33:04.518Z,8.90
2019-05-20T17:35:08.485Z,9.10
2019-05-20T17:37:13.902Z,9.10
2019-05-20T17:39:19.454Z,9.50
2019-05-20T17:41:23.630Z,9.30
2019-05-20T17:43:27.824Z,7.40
2019-05-20T17:45:32.931Z,7.60
2019-05-20T17:47:37.581Z,7.27
2019-05-20T17:49:41.490Z,7.53
2019-05-20T17:51:45.260Z,7.10
2019-05-20T17:53:49.325Z,7.90
2019-05-20T17:55:53.072Z,7.27
2019-05-20T17:57:58.417Z,7.30
2019-05-20T18:00:03.075Z,6.87
2019-05-20T18:02:07.669Z,8.00
2019-05-20T18:04:11.671Z,6.50
2019-05-20T18:06:15.675Z,8.47
2019-05-20T18:08:19.580Z,8.27
2019-05-20T18:10:23.377Z,7.60
2019-05-20T18:12:27.182Z,8.63
2019-05-20T18:14:32.320Z,6.60
2019-05-20T18:16:36.490Z,8.53
2019-05-20T18:18:40.456Z,8.43
2019-05-20T18:20:44.849Z,7.77
2019-05-20T18:22:49.185Z,7.43
2019-05-20T18:24:52.775Z,7.27
2019-05-20T18:26:56.766Z,6.20
2019-05-20T18:29:00.692Z,6.70
2019-05-20T18:31:04.604Z,6.33
2019-05-20T18:33:08.673Z,5.93
2019-05-20T18:35:12.784Z,5.77
2019-05-20T18:37:16.699Z,7.43
2019-05-20T18:39:20.417Z,7.27
2019-05-20T18:41:24.461Z,8.73
2019-05-20T18:43:28.320Z,7.93
2019-05-20T18:45:32.440Z,8.80
2019-05-20T18:47:36.340Z,13.77
2019-05-20T18:49:41.718Z,11.63
2019-05-20T18:51:46.294Z,11.80
2019-05-20T18:53:50.418Z,11.10
2019-05-20T18:55:54.344Z,12.33
2019-05-20T18:57:58.767Z,11.87
2019-05-20T19:00:03.523Z,10.67
2019-05-20T19:02:07.661Z,9.93
2019-05-20T19:04:11.369Z,9.97
2019-05-20T19:06:15.443Z,9.00
2019-05-20T19:08:20.307Z,8.20
2019-05-20T19:10:24.007Z,8.43
2019-05-20T19:12:27.729Z,8.30
2019-05-20T19:14:32.290Z,10.00
2019-05-20T19:16:37.162Z,8.03
2019-05-20T19:18:41.071Z,8.83
2019-05-20T19:20:45.281Z,6.90
2019-05-20T19:22:48.863Z,7.87
2019-05-20T19:24:53.347Z,7.10
2019-05-20T19:26:57.436Z,7.40
2019-05-20T19:29:01.028Z,6.60
2019-05-20T19:31:07.842Z,7.07
2019-05-20T19:33:10.984Z,7.50
2019-05-20T19:35:14.892Z,6.63
2019-05-20T19:37:18.931Z,6.80
2019-05-20T19:39:22.899Z,6.43
2019-05-20T19:41:26.885Z,7.10
2019-05-20T19:43:31.807Z,6.00
2019-05-20T19:45:35.402Z,6.47
2019-05-20T19:47:39.931Z,6.50
2019-05-20T19:49:44.575Z,5.60
2019-05-20T19:51:48.855Z,5.53
2019-05-20T19:53:52.916Z,6.70
2019-05-20T19:55:56.900Z,4.80
2019-05-20T19:58:01.293Z,5.03
2019-05-20T20:00:05.320Z,5.37
2019-05-20T20:02:16.876Z,5.47
2019-05-20T20:04:14.743Z,4.83
2019-05-20T20:06:18.671Z,6.07
2019-05-20T20:08:22.464Z,5.50
2019-05-20T20:10:26.515Z,4.80
2019-05-20T20:12:30.312Z,5.30
2019-05-20T20:14:34.068Z,5.43
2019-05-20T20:16:39.099Z,4.70
2019-05-20T20:18:43.218Z,5.53
2019-05-20T20:20:47.424Z,4.93
2019-05-20T20:22:53.173Z,4.27
2019-05-20T20:24:57.889Z,5.10
2019-05-20T20:27:01.929Z,4.50
2019-05-20T20:29:06.656Z,4.00
2019-05-20T20:31:11.495Z,4.17
2019-05-20T20:33:15.480Z,5.30
2019-05-20T20:35:21.496Z,4.20
2019-05-20T20:37:26.893Z,4.70
2019-05-20T20:39:34.552Z,3.97
2019-05-20T20:41:39.207Z,3.90
2019-05-20T20:43:43.423Z,3.80
2019-05-20T20:45:47.822Z,4.40
2019-05-20T20:47:53.453Z,3.90
2019-05-20T20:49:57.698Z,3.40
2019-05-20T20:52:02.464Z,3.80
2019-05-20T20:54:06.713Z,4.30
2019-05-20T20:56:24.193Z,3.80
2019-05-20T20:58:16.872Z,3.40
2019-05-20T21:00:21.004Z,3.70
2019-05-20T21:02:25.061Z,3.70
2019-05-20T21:04:28.803Z,3.10
2019-05-20T21:06:32.910Z,4.00
2019-05-20T21:08:36.603Z,4.10
2019-05-20T21:10:40.506Z,2.70
2019-05-20T21:12:44.414Z,3.10
2019-05-20T21:14:48.282Z,2.83
2019-05-20T21:16:52.043Z,2.47
2019-05-20T21:18:56.062Z,2.70
2019-05-20T21:21:00.447Z,2.90
2019-05-20T21:23:05.309Z,3.27
2019-05-20T21:25:09.045Z,3.10
2019-05-20T21:27:12.883Z,2.57
2019-05-20T21:29:16.497Z,3.03
2019-05-20T21:31:20.494Z,2.80
2019-05-20T21:33:23.981Z,2.53
2019-05-20T21:35:29.022Z,2.73
2019-05-20T21:37:32.931Z,2.60
2019-05-20T21:39:36.518Z,2.50
2019-05-20T21:41:40.947Z,2.47
2019-05-20T21:43:44.836Z,2.50
2019-05-20T21:45:48.535Z,2.23
2019-05-20T21:47:52.446Z,2.53
2019-05-20T21:49:56.245Z,2.50
2019-05-20T21:52:00.248Z,2.10
2019-05-20T21:54:06.101Z,2.13
2019-05-20T21:56:10.352Z,2.67
2019-05-20T21:58:14.583Z,2.70
2019-05-20T22:00:18.634Z,2.10
2019-05-20T22:02:26.519Z,2.30
2019-05-20T22:04:29.000Z,2.67
2019-05-20T22:06:33.044Z,2.30
2019-05-20T22:08:37.584Z,2.50
2019-05-20T22:10:42.159Z,2.33
2019-05-20T22:12:46.072Z,2.40
2019-05-20T22:14:50.498Z,2.57
2019-05-20T22:16:54.847Z,2.07
2019-05-20T22:18:58.691Z,1.60
2019-05-20T22:21:02.837Z,2.67
2019-05-20T22:23:07.212Z,2.57
2019-05-20T22:25:11.142Z,2.47
2019-05-20T22:27:15.543Z,2.30
2019-05-20T22:29:19.771Z,2.70
2019-05-20T22:31:24.094Z,2.30
2019-05-20T22:33:40.483Z,2.20
2019-05-20T22:35:34.043Z,2.60
2019-05-20T22:37:37.816Z,2.50
2019-05-20T22:39:42.670Z,2.17
2019-05-20T22:41:46.592Z,2.80
2019-05-20T22:43:50.724Z,2.60
2019-05-20T22:45:55.554Z,2.30
2019-05-20T22:47:59.229Z,2.63
2019-05-20T22:50:03.314Z,2.37
2019-05-20T22:52:07.738Z,2.40
2019-05-20T22:54:12.101Z,2.70
2019-05-20T22:56:15.748Z,2.07
2019-05-20T22:58:20.244Z,2.53
2019-05-20T23:00:24.428Z,2.53
2019-05-20T23:02:28.725Z,2.40
2019-05-20T23:04:32.927Z,2.80
2019-05-20T23:06:36.507Z,2.53
2019-05-20T23:08:40.675Z,2.90
2019-05-20T23:10:45.563Z,2.63
2019-05-20T23:12:49.478Z,2.80
2019-05-20T23:14:53.366Z,2.43
2019-05-20T23:16:57.558Z,2.93
2019-05-20T23:19:01.375Z,2.67
2019-05-20T23:21:05.281Z,2.43
2019-05-20T23:23:09.815Z,2.83
2019-05-20T23:25:14.032Z,2.10
2019-05-20T23:27:18.032Z,2.20
2019-05-20T23:29:22.035Z,2.37
2019-05-20T23:31:25.609Z,2.87
2019-05-20T23:33:29.465Z,2.20
2019-05-20T23:35:33.323Z,2.33
2019-05-20T23:37:37.024Z,2.27
2019-05-20T23:39:41.476Z,2.37
2019-05-20T23:41:45.684Z,2.50
2019-05-20T23:43:50.178Z,3.20
2019-05-20T23:45:54.204Z,3.80
2019-05-20T23:47:58.686Z,4.30
2019-05-20T23:50:02.823Z,2.90
2019-05-20T23:52:06.528Z,3.00
2019-05-20T23:54:10.427Z,2.80
2019-05-20T23:56:14.322Z,3.27
2019-05-20T23:58:19.146Z,5.13
